createdAt,value
2022-08-03T00:03:30.248Z,1.67
2022-08-03T00:08:32.233Z,1.30
2022-08-03T00:13:39.335Z,1.90
2022-08-03T00:18:40.991Z,1.85
2022-08-03T00:23:51.184Z,2.03
2022-08-03T00:28:55.651Z,1.60
2022-08-03T00:33:58.822Z,2.08
2022-08-03T00:39:01.717Z,2.10
2022-08-03T00:44:03.495Z,1.55
2022-08-03T00:49:05.129Z,2.00
2022-08-03T00:54:06.645Z,1.75
2022-08-03T00:59:10.349Z,1.85
2022-08-03T01:04:11.834Z,1.70
2022-08-03T01:09:38.757Z,1.75
2022-08-03T01:14:55.980Z,2.00
2022-08-03T01:20:07.171Z,1.70
2022-08-03T01:25:32.842Z,1.90
2022-08-03T01:30:37.680Z,1.88
2022-08-03T01:35:47.193Z,2.08
2022-08-03T01:40:51.903Z,2.60
2022-08-03T01:45:55.544Z,1.77
2022-08-03T01:50:59.471Z,2.15
2022-08-03T01:56:03.653Z,2.35
2022-08-03T02:01:07.101Z,2.40
2022-08-03T02:06:58.429Z,2.35
2022-08-03T02:11:36.330Z,2.35
2022-08-03T02:16:40.539Z,1.88
2022-08-03T02:21:57.305Z,2.35
2022-08-03T02:32:08.103Z,2.55
2022-08-03T02:37:10.863Z,2.38
2022-08-03T02:42:16.578Z,2.33
2022-08-03T02:47:23.888Z,2.38
2022-08-03T02:52:28.196Z,2.40
2022-08-03T02:57:35.857Z,2.35
2022-08-03T03:02:39.962Z,1.88
2022-08-03T03:07:51.529Z,2.67
2022-08-03T03:12:57.801Z,2.15
2022-08-03T03:18:00.967Z,2.70
2022-08-03T03:23:03.595Z,2.80
2022-08-03T03:28:06.442Z,2.28
2022-08-03T03:33:08.395Z,2.75
2022-08-03T03:38:10.074Z,2.38
2022-08-03T03:43:12.316Z,2.38
2022-08-03T03:48:14.290Z,2.80
2022-08-03T03:53:16.254Z,2.58
2022-08-03T03:58:17.807Z,2.58
2022-08-03T04:03:20.021Z,2.60
2022-08-03T04:08:40.220Z,2.58
2022-08-03T04:14:02.296Z,2.20
2022-08-03T04:19:14.036Z,3.15
2022-08-03T04:24:16.124Z,3.20
2022-08-03T04:29:19.603Z,2.67
2022-08-03T04:34:21.081Z,2.45
2022-08-03T04:39:28.519Z,2.83
2022-08-03T04:44:34.035Z,2.28
2022-08-03T04:49:40.254Z,2.13
2022-08-03T04:54:48.761Z,1.77
2022-08-03T05:00:02.066Z,1.95
2022-08-03T05:05:04.640Z,1.45
2022-08-03T05:10:14.991Z,1.33
2022-08-03T05:15:17.988Z,1.33
2022-08-03T05:20:19.704Z,1.20
2022-08-03T05:25:23.358Z,1.55
2022-08-03T05:30:33.484Z,1.27
2022-08-03T05:35:57.702Z,1.63
2022-08-03T05:41:21.855Z,1.50
2022-08-03T05:46:21.346Z,1.23
2022-08-03T05:51:22.850Z,1.08
2022-08-03T05:56:27.871Z,1.45
2022-08-03T06:01:32.570Z,1.67
2022-08-03T06:06:34.130Z,1.50
2022-08-03T06:11:35.702Z,1.30
2022-08-03T06:16:37.208Z,1.67
2022-08-03T06:21:38.729Z,1.55
2022-08-03T06:26:41.353Z,1.50
2022-08-03T06:31:43.150Z,1.48
2022-08-03T06:36:44.615Z,1.70
2022-08-03T06:41:46.046Z,1.00
2022-08-03T06:46:47.795Z,0.90
2022-08-03T06:52:04.442Z,1.40
2022-08-03T06:57:12.267Z,1.27
2022-08-03T07:02:18.267Z,1.08
2022-08-03T07:07:21.709Z,1.20
2022-08-03T07:12:23.482Z,1.17
2022-08-03T07:17:25.379Z,1.40
2022-08-03T07:22:27.102Z,1.20
2022-08-03T07:27:30.316Z,1.13
2022-08-03T07:32:32.255Z,1.65
2022-08-03T07:37:34.096Z,1.20
2022-08-03T07:42:35.566Z,1.13
2022-08-03T07:47:37.191Z,1.20
2022-08-03T07:52:56.417Z,1.27
2022-08-03T07:58:05.746Z,0.90
2022-08-03T08:03:07.579Z,1.40
2022-08-03T08:08:12.000Z,1.02
2022-08-03T08:13:13.636Z,1.30
2022-08-03T08:18:15.133Z,1.25
2022-08-03T08:23:42.032Z,1.48
2022-08-03T08:28:44.615Z,1.00
2022-08-03T08:34:03.562Z,1.13
2022-08-03T08:39:05.751Z,0.95
2022-08-03T08:44:08.267Z,0.80
2022-08-03T08:49:11.271Z,0.93
2022-08-03T08:54:13.698Z,1.23
2022-08-03T08:59:16.379Z,1.40
2022-08-03T09:04:18.270Z,1.35
2022-08-03T09:10:08.470Z,1.27
2022-08-03T09:15:00.729Z,1.40
2022-08-03T09:20:08.255Z,1.33
2022-08-03T09:25:24.215Z,1.30
2022-08-03T09:30:34.789Z,1.70
2022-08-03T09:35:54.461Z,1.10
2022-08-03T09:41:00.455Z,1.80
2022-08-03T09:46:07.638Z,1.50
2022-08-03T09:51:12.877Z,1.60
2022-08-03T09:56:36.197Z,1.50
2022-08-03T10:01:38.815Z,1.63
2022-08-03T10:06:40.848Z,1.83
2022-08-03T10:11:44.660Z,1.50
2022-08-03T10:16:47.574Z,1.40
2022-08-03T10:22:07.928Z,2.03
2022-08-03T10:27:12.769Z,1.48
2022-08-03T10:32:23.833Z,1.50
2022-08-03T10:37:48.338Z,1.40
2022-08-03T10:43:11.007Z,1.20
2022-08-03T10:48:19.713Z,1.40
2022-08-03T10:53:54.563Z,1.20
2022-08-03T10:58:57.509Z,1.42
2022-08-03T11:03:59.789Z,1.45
2022-08-03T11:09:10.541Z,1.02
2022-08-03T11:14:16.479Z,1.40
2022-08-03T11:19:24.389Z,1.35
2022-08-03T11:24:43.638Z,1.10
2022-08-03T11:30:10.644Z,1.45
2022-08-03T11:35:25.724Z,1.45
2022-08-03T11:40:50.277Z,1.60
2022-08-03T11:46:06.309Z,1.38
2022-08-03T11:51:19.800Z,1.42
2022-08-03T11:56:21.916Z,1.17
2022-08-03T12:01:27.293Z,1.25
2022-08-03T12:06:28.769Z,1.05
2022-08-03T12:11:30.627Z,1.15
2022-08-03T12:16:32.459Z,1.33
2022-08-03T12:21:34.304Z,1.20
2022-08-03T12:26:58.590Z,1.50
2022-08-03T12:32:01.169Z,1.00
2022-08-03T12:37:22.518Z,1.02
2022-08-03T12:42:36.501Z,1.38
2022-08-03T12:47:54.835Z,1.40
2022-08-03T12:52:58.714Z,1.50
2022-08-03T12:58:01.385Z,1.38
2022-08-03T13:08:29.541Z,1.20
2022-08-03T13:13:40.439Z,1.30
2022-08-03T13:18:41.926Z,1.65
2022-08-03T13:23:44.928Z,1.20
2022-08-03T13:28:46.949Z,1.30
2022-08-03T13:33:48.477Z,1.20
2022-08-03T13:38:49.899Z,1.38
2022-08-03T13:44:12.040Z,1.10
2022-08-03T13:49:14.213Z,1.08
2022-08-03T13:54:16.215Z,1.20
2022-08-03T13:59:18.654Z,1.05
2022-08-03T14:04:22.513Z,1.42
2022-08-03T14:09:24.760Z,1.70
2022-08-03T14:14:26.198Z,1.13
2022-08-03T14:19:28.472Z,1.27
2022-08-03T14:24:30.382Z,1.30
2022-08-03T14:29:31.858Z,1.42
2022-08-03T14:34:33.708Z,1.40
2022-08-03T14:45:03.461Z,1.33
2022-08-03T14:50:37.282Z,1.17
2022-08-03T14:55:38.459Z,1.45
2022-08-03T15:00:43.613Z,1.10
2022-08-03T15:05:45.757Z,1.27
2022-08-03T15:10:49.222Z,1.40
2022-08-03T15:15:52.240Z,1.20
2022-08-03T15:20:54.955Z,1.42
2022-08-03T15:26:28.247Z,1.48
2022-08-03T15:31:25.353Z,1.80
2022-08-03T15:36:27.776Z,1.20
2022-08-03T15:41:29.465Z,1.20
2022-08-03T15:46:31.698Z,1.02
2022-08-03T15:51:33.234Z,1.10
2022-08-03T15:56:35.667Z,1.20
2022-08-03T16:01:38.429Z,1.30
2022-08-03T16:06:41.156Z,1.13
2022-08-03T16:11:43.198Z,1.58
2022-08-03T16:16:44.975Z,1.23
2022-08-03T16:21:50.131Z,1.60
2022-08-03T16:26:51.855Z,1.45
2022-08-03T16:31:53.536Z,1.30
2022-08-03T16:36:58.638Z,1.40
2022-08-03T16:42:01.813Z,0.98
2022-08-03T16:47:03.806Z,1.25
2022-08-03T16:52:07.180Z,1.20
2022-08-03T16:57:09.907Z,1.15
2022-08-03T17:02:26.163Z,1.17
2022-08-03T17:07:29.673Z,1.20
2022-08-03T17:12:32.309Z,1.17
2022-08-03T17:17:53.739Z,1.20
2022-08-03T17:23:14.511Z,1.58
2022-08-03T17:28:49.400Z,1.25
2022-08-03T17:33:54.593Z,1.42
2022-08-03T17:38:57.585Z,1.40
2022-08-03T17:44:15.721Z,1.75
2022-08-03T17:49:24.859Z,1.42
2022-08-03T18:00:31.192Z,1.42
2022-08-03T18:06:12.003Z,1.45
2022-08-03T18:11:14.919Z,1.20
2022-08-03T18:16:44.093Z,1.42
2022-08-03T18:22:03.107Z,1.35
2022-08-03T18:27:06.570Z,1.55
2022-08-03T18:32:13.713Z,1.48
2022-08-03T18:37:24.999Z,2.13
2022-08-03T18:42:27.520Z,1.33
2022-08-03T18:47:57.898Z,1.30
2022-08-03T18:54:02.293Z,1.10
2022-08-03T18:59:30.247Z,1.05
2022-08-03T19:04:38.575Z,1.40
2022-08-03T19:09:54.500Z,1.40
2022-08-03T19:15:00.989Z,1.70
2022-08-03T19:20:07.034Z,1.70
2022-08-03T19:25:12.016Z,2.13
2022-08-03T19:30:35.298Z,1.30
2022-08-03T19:35:51.370Z,1.65
2022-08-03T19:41:01.487Z,1.50
2022-08-03T19:46:11.583Z,1.48
2022-08-03T19:51:15.746Z,2.03
2022-08-03T19:56:22.877Z,2.15
2022-08-03T20:01:25.655Z,1.90
2022-08-03T20:06:30.873Z,1.70
2022-08-03T20:11:33.815Z,1.95
2022-08-03T20:16:47.202Z,1.50
2022-08-03T20:21:51.343Z,2.10
2022-08-03T20:26:57.854Z,1.40
2022-08-03T20:31:59.801Z,1.58
2022-08-03T20:37:03.571Z,1.58
2022-08-03T20:42:05.499Z,1.20
2022-08-03T20:47:10.645Z,1.65
2022-08-03T20:52:18.921Z,1.30
2022-08-03T20:57:20.993Z,1.42
2022-08-03T21:02:29.883Z,1.60
2022-08-03T21:08:05.518Z,1.35
2022-08-03T21:12:55.595Z,1.17
2022-08-03T21:13:17.137Z,1.45
2022-08-03T21:18:20.465Z,1.30
2022-08-03T21:23:40.030Z,1.52
2022-08-03T21:28:46.429Z,1.70
2022-08-03T21:33:48.433Z,1.20
2022-08-03T21:38:56.496Z,0.90
2022-08-03T21:44:00.181Z,1.40
2022-08-03T21:50:06.776Z,1.50
2022-08-03T21:54:34.169Z,1.60
2022-08-03T21:59:40.034Z,1.70
2022-08-03T22:04:53.030Z,1.30
2022-08-03T22:09:59.596Z,1.10
2022-08-03T22:15:06.071Z,1.60
2022-08-03T22:20:14.614Z,1.00
2022-08-03T22:25:16.467Z,1.33
2022-08-03T22:30:19.567Z,1.33
2022-08-03T22:35:23.177Z,1.27
2022-08-03T22:40:26.039Z,1.65
2022-08-03T22:46:06.139Z,1.27
2022-08-03T22:50:50.994Z,1.85
2022-08-03T22:55:52.637Z,1.73
2022-08-03T23:01:26.221Z,1.63
2022-08-03T23:06:34.663Z,1.60
2022-08-03T23:11:45.226Z,1.70
2022-08-03T23:16:48.101Z,1.40
2022-08-03T23:22:00.805Z,1.45
2022-08-03T23:27:10.730Z,1.67
2022-08-03T23:32:13.107Z,1.48
2022-08-03T23:37:17.698Z,1.60
2022-08-03T23:42:20.600Z,1.27
2022-08-03T23:47:22.553Z,1.30
2022-08-03T23:52:36.138Z,1.83
2022-08-03T23:57:50.123Z,1.85
